Airfield :







YOU CAN JOIN US ON...

 
LOGIN :

Register | Disclaimer

   EN    FR    IT 

 









Legend :    VFR   Marginal VFR   IFR   Intensive IFR   Very Intensive IFR
Visi :
Ceiling :
>= 8 km
>= 3000ft
5 to 8 km
1000 to 3000 ft
1500m to 5 km
500 to 1000 ft
800 to 1500m
200 to 500 ft
< 800m
< 200 ft
Symbols :   Thunderstorms  Fog  Heavy snow  Heavy precipitations  Wind > 20 kt







- Airport Elevation : 35 ft
- IATA code : YGR


CYGR - Îles-de-la-Madeleine

CURRENT METAR :
  • 232200Z 21005KT 15SM -DZ BKN015 OVC053 01/M00 A2910 RMK SC6SC2 SLP856

EXPIRED METARs :
  • 232123Z 20006KT 7SM -DZ OVC015 01/M00 A2910 RMK SC8 SLP855
  • 232100Z 19008KT 15SM -RA BKN018 OVC040 02/M01 A2909 RMK SC6SC2 SLP853
  • 232000Z CCA 20008G15KT 20SM -RA OVC024 02/M01 A2908 RMK SC8 SLP849

TAF TAF CYGR
Valid from the 23 at 20:00 until the 24 at 02:00 UTC


231938Z 2320/2402 17010G20KT P6SM OVC025
TEMPO 2320/2324 5SM -RA -DZ BR OVC015
PROB30 2322/2324 2SM -RA -DZ BR OVC004
FM240000 20010KT 1SM -SN BR OVC004
TEMPO 2400/2402 6SM BR OVC008
BECMG 2400/2402 31020G30KT RMK NXT FCST WILL BE ISSUED AT 241045Z
CZQM FIR / North America



MET'MAP, your aeronautical weather chart ! - Copyright ORBIFLY December 2007 - Disclaimer

ORBIFLY MET'MAP TEAM :

Programming & Development : Alexandra Zaïnal
Concept & Development : Baudouin d'Aumeries
Co-Development & Prog : Marc-Olivier Méhu
Technical & hardware support : Manuel Goepfert

Contact : metmap@orbifly.com




SOURCES & CREDITS :

   NOAA